sensor_id;sensor_type;location;lat;lon;timestamp;pressure;altitude;pressure_sealevel;temperature;humidity
55351;BME280;62194;49.480;10.986;2023-06-14T00:00:03;97842.88;;;15.35;50.97
55351;BME280;62194;49.480;10.986;2023-06-14T00:00:09;97855.84;;;15.45;51.01
55351;BME280;62194;49.480;10.986;2023-06-14T00:00:17;97857.81;;;15.44;51.08
55351;BME280;62194;49.480;10.986;2023-06-14T00:00:22;97856.25;;;15.43;51.00
55351;BME280;62194;49.480;10.986;2023-06-14T00:00:27;97857.81;;;15.41;51.07
55351;BME280;62194;49.480;10.986;2023-06-14T00:00:33;97859.78;;;15.44;50.98
55351;BME280;62194;49.480;10.986;2023-06-14T00:00:39;97848.38;;;15.38;50.95
55351;BME280;62194;49.480;10.986;2023-06-14T00:00:46;97853.09;;;15.41;50.96
55351;BME280;62194;49.480;10.986;2023-06-14T00:00:53;97854.28;;;15.40;51.13
55351;BME280;62194;49.480;10.986;2023-06-14T00:01:02;97841.31;;;15.37;51.02
55351;BME280;62194;49.480;10.986;2023-06-14T00:01:11;97857.81;;;15.44;51.00
55351;BME280;62194;49.480;10.986;2023-06-14T00:01:18;97854.28;;;15.40;51.06
55351;BME280;62194;49.480;10.986;2023-06-14T00:01:25;97862.53;;;15.44;51.01
55351;BME280;62194;49.480;10.986;2023-06-14T00:01:31;97848.38;;;15.38;51.07
55351;BME280;62194;49.480;10.986;2023-06-14T00:01:37;97859.78;;;15.44;50.96
55351;BME280;62194;49.480;10.986;2023-06-14T00:01:43;97858.97;;;15.40;51.15
55351;BME280;62194;49.480;10.986;2023-06-14T00:01:50;97852.31;;;15.37;50.96
55351;BME280;62194;49.480;10.986;2023-06-14T00:01:56;97849.16;;;15.39;50.98
55351;BME280;62194;49.480;10.986;2023-06-14T00:02:01;97857.81;;;15.41;50.88
55351;BME280;62194;49.480;10.986;2023-06-14T00:02:06;97859.00;;;15.43;50.92
55351;BME280;62194;49.480;10.986;2023-06-14T00:02:14;97845.22;;;15.36;51.06
55351;BME280;62194;49.480;10.986;2023-06-14T00:02:19;97838.91;;;15.29;51.12
55351;BME280;62194;49.480;10.986;2023-06-14T00:02:24;97852.28;;;15.34;50.96
55351;BME280;62194;49.480;10.986;2023-06-14T00:02:30;97850.69;;;15.33;50.99
55351;BME280;62194;49.480;10.986;2023-06-14T00:02:35;97847.97;;;15.36;50.89
55351;BME280;62194;49.480;10.986;2023-06-14T00:02:40;97858.97;;;15.40;50.85
55351;BME280;62194;49.480;10.986;2023-06-14T00:02:46;97849.53;;;15.34;51.17
55351;BME280;62194;49.480;10.986;2023-06-14T00:02:51;97858.19;;;15.39;51.08
55351;BME280;62194;49.480;10.986;2023-06-14T00:03:02;97857.41;;;15.39;51.03
55351;BME280;62194;49.480;10.986;2023-06-14T00:03:07;97846.78;;;15.34;51.21
55351;BME280;62194;49.480;10.986;2023-06-14T00:03:16;97852.66;;;15.36;51.18
55351;BME280;62194;49.480;10.986;2023-06-14T00:03:22;97827.09;;;15.17;50.93
55351;BME280;62194;49.480;10.986;2023-06-14T00:03:29;97859.34;;;15.38;50.92
55351;BME280;62194;49.480;10.986;2023-06-14T00:03:36;97841.66;;;15.29;51.03
55351;BME280;62194;49.480;10.986;2023-06-14T00:03:42;97857.00;;;15.37;50.76
55351;BME280;62194;49.480;10.986;2023-06-14T00:03:47;97845.97;;;15.30;50.84
55351;BME280;62194;49.480;10.986;2023-06-14T00:03:53;97855.81;;;15.31;51.04
55351;BME280;62194;49.480;10.986;2023-06-14T00:03:59;97855.41;;;15.36;51.07
55351;BME280;62194;49.480;10.986;2023-06-14T00:04:05;97853.44;;;15.33;51.05
55351;BME280;62194;49.480;10.986;2023-06-14T00:04:13;97844.41;;;15.29;51.06
55351;BME280;62194;49.480;10.986;2023-06-14T00:04:21;97829.06;;;15.20;51.04
55351;BME280;62194;49.480;10.986;2023-06-14T00:04:26;97825.50;;;15.16;50.92
55351;BME280;62194;49.480;10.986;2023-06-14T00:04:32;97834.59;;;15.24;50.90
55351;BME280;62194;49.480;10.986;2023-06-14T00:04:38;97856.97;;;15.33;51.15
55351;BME280;62194;49.480;10.986;2023-06-14T00:04:44;97845.97;;;15.33;51.12
55351;BME280;62194;49.480;10.986;2023-06-14T00:04:50;97851.47;;;15.33;51.25
55351;BME280;62194;49.480;10.986;2023-06-14T00:04:57;97838.91;;;15.25;51.28
55351;BME280;62194;49.480;10.986;2023-06-14T00:05:05;97848.69;;;15.26;51.25
55351;BME280;62194;49.480;10.986;2023-06-14T00:05:10;97846.38;;;15.28;51.14
55351;BME280;62194;49.480;10.986;2023-06-14T00:05:19;97856.19;;;15.33;50.91
55351;BME280;62194;49.480;10.986;2023-06-14T00:05:24;97849.91;;;15.32;51.21
55351;BME280;62194;49.480;10.986;2023-06-14T00:05:30;97817.25;;;15.09;51.07
55351;BME280;62194;49.480;10.986;2023-06-14T00:05:38;97862.88;;;15.32;51.16
55351;BME280;62194;49.480;10.986;2023-06-14T00:05:46;97837.28;;;15.17;51.28
55351;BME280;62194;49.480;10.986;2023-06-14T00:05:51;97853.06;;;15.31;51.52
55351;BME280;62194;49.480;10.986;2023-06-14T00:05:57;97853.44;;;15.29;51.47
55351;BME280;62194;49.480;10.986;2023-06-14T00:06:02;97854.22;;;15.30;51.42
55351;BME280;62194;49.480;10.986;2023-06-14T00:06:07;97851.84;;;15.28;51.43
55351;BME280;62194;49.480;10.986;2023-06-14T00:06:13;97843.97;;;15.23;51.37
55351;BME280;62194;49.480;10.986;2023-06-14T00:06:18;97852.22;;;15.27;51.44
55351;BME280;62194;49.480;10.986;2023-06-14T00:06:23;97860.09;;;15.28;51.58
55351;BME280;62194;49.480;10.986;2023-06-14T00:06:29;97827.44;;;15.09;51.78
55351;BME280;62194;49.480;10.986;2023-06-14T00:06:34;97830.19;;;15.12;51.15
55351;BME280;62194;49.480;10.986;2023-06-14T00:06:39;97829.81;;;15.14;51.53
55351;BME280;62194;49.480;10.986;2023-06-14T00:06:46;97853.41;;;15.26;51.43
55351;BME280;62194;49.480;10.986;2023-06-14T00:06:52;97856.56;;;15.28;51.46
55351;BME280;62194;49.480;10.986;2023-06-14T00:06:57;97860.88;;;15.25;51.46
55351;BME280;62194;49.480;10.986;2023-06-14T00:07:03;97850.66;;;15.26;51.49
55351;BME280;62194;49.480;10.986;2023-06-14T00:07:08;97850.66;;;15.26;51.51
55351;BME280;62194;49.480;10.986;2023-06-14T00:07:14;97809.31;;;14.93;51.60
55351;BME280;62194;49.480;10.986;2023-06-14T00:07:33;97860.47;;;15.27;51.80
55351;BME280;62194;49.480;10.986;2023-06-14T00:07:40;97855.78;;;15.27;51.89
55351;BME280;62194;49.480;10.986;2023-06-14T00:07:49;97855.75;;;15.23;51.63
55351;BME280;62194;49.480;10.986;2023-06-14T00:07:58;97850.22;;;15.20;51.81
55351;BME280;62194;49.480;10.986;2023-06-14T00:08:05;97852.22;;;15.23;51.93
55351;BME280;62194;49.480;10.986;2023-06-14T00:08:13;97863.22;;;15.27;51.80
55351;BME280;62194;49.480;10.986;2023-06-14T00:08:18;97849.09;;;15.21;51.88
55351;BME280;62194;49.480;10.986;2023-06-14T00:08:26;97832.94;;;15.12;51.98
55351;BME280;62194;49.480;10.986;2023-06-14T00:08:31;97847.47;;;15.16;51.98
55351;BME280;62194;49.480;10.986;2023-06-14T00:08:36;97847.09;;;15.18;51.90
55351;BME280;62194;49.480;10.986;2023-06-14T00:08:42;97853.00;;;15.23;51.82
55351;BME280;62194;49.480;10.986;2023-06-14T00:08:47;97852.19;;;15.19;52.00
55351;BME280;62194;49.480;10.986;2023-06-14T00:08:52;97830.94;;;15.06;52.07
55351;BME280;62194;49.480;10.986;2023-06-14T00:08:59;97850.66;;;15.22;51.95
55351;BME280;62194;49.480;10.986;2023-06-14T00:09:04;97833.69;;;15.06;52.19
55351;BME280;62194;49.480;10.986;2023-06-14T00:09:11;97847.47;;;15.16;51.96
55351;BME280;62194;49.480;10.986;2023-06-14T00:09:18;97853.41;;;15.22;52.04
55351;BME280;62194;49.480;10.986;2023-06-14T00:09:23;97851.00;;;15.13;52.09
55351;BME280;62194;49.480;10.986;2023-06-14T00:09:28;97863.59;;;15.21;51.96
55351;BME280;62194;49.480;10.986;2023-06-14T00:09:34;97854.94;;;15.19;52.00
55351;BME280;62194;49.480;10.986;2023-06-14T00:09:39;97845.91;;;15.12;51.98
55351;BME280;62194;49.480;10.986;2023-06-14T00:09:45;97854.94;;;15.19;51.86
55351;BME280;62194;49.480;10.986;2023-06-14T00:09:50;97838.41;;;15.05;51.96
55351;BME280;62194;49.480;10.986;2023-06-14T00:09:56;97834.47;;;15.03;51.98
55351;BME280;62194;49.480;10.986;2023-06-14T00:10:02;97859.25;;;15.17;51.95
55351;BME280;62194;49.480;10.986;2023-06-14T00:10:09;97856.50;;;15.17;52.00
55351;BME280;62194;49.480;10.986;2023-06-14T00:10:14;97854.53;;;15.14;51.89
55351;BME280;62194;49.480;10.986;2023-06-14T00:10:20;97855.72;;;15.16;51.91
55351;BME280;62194;49.480;10.986;2023-06-14T00:10:25;97858.09;;;15.18;52.00
55351;BME280;62194;49.480;10.986;2023-06-14T00:10:36;97855.72;;;15.16;51.95
55351;BME280;62194;49.480;10.986;2023-06-14T00:10:42;97840.75;;;15.07;52.05
55351;BME280;62194;49.480;10.986;2023-06-14T00:10:47;97834.09;;;15.04;51.86
55351;BME280;62194;49.480;10.986;2023-06-14T00:10:52;97844.72;;;15.13;51.93
55351;BME280;62194;49.480;10.986;2023-06-14T00:10:58;97840.38;;;15.05;51.92
55351;BME280;62194;49.480;10.986;2023-06-14T00:11:03;97829.75;;;15.03;51.93
55351;BME280;62194;49.480;10.986;2023-06-14T00:11:09;97848.63;;;15.08;51.90
55351;BME280;62194;49.480;10.986;2023-06-14T00:11:14;97854.16;;;15.15;51.93
55351;BME280;62194;49.480;10.986;2023-06-14T00:11:20;97838.78;;;15.07;51.92
55351;BME280;62194;49.480;10.986;2023-06-14T00:11:25;97855.69;;;15.13;51.85
55351;BME280;62194;49.480;10.986;2023-06-14T00:11:31;97843.47;;;15.03;52.54
55351;BME280;62194;49.480;10.986;2023-06-14T00:11:38;97841.91;;;15.02;52.54
55351;BME280;62194;49.480;10.986;2023-06-14T00:11:43;97852.59;;;15.14;52.54
55351;BME280;62194;49.480;10.986;2023-06-14T00:11:49;97841.13;;;15.02;52.57
55351;BME280;62194;49.480;10.986;2023-06-14T00:11:54;97852.16;;;15.12;52.78
55351;BME280;62194;49.480;10.986;2023-06-14T00:12:00;97859.22;;;15.13;52.82
55351;BME280;62194;49.480;10.986;2023-06-14T00:12:06;97853.34;;;15.11;52.49
55351;BME280;62194;49.480;10.986;2023-06-14T00:12:11;97855.69;;;15.13;52.69
55351;BME280;62194;49.480;10.986;2023-06-14T00:12:16;97852.91;;;15.06;52.44
55351;BME280;62194;49.480;10.986;2023-06-14T00:12:22;97865.91;;;15.12;52.47
55351;BME280;62194;49.480;10.986;2023-06-14T00:12:27;97852.16;;;15.09;52.72
55351;BME280;62194;49.480;10.986;2023-06-14T00:12:32;97836.41;;;14.98;52.97
55351;BME280;62194;49.480;10.986;2023-06-14T00:12:38;97855.69;;;15.13;52.82
55351;BME280;62194;49.480;10.986;2023-06-14T00:12:44;97852.94;;;15.09;52.48
55351;BME280;62194;49.480;10.986;2023-06-14T00:12:49;97849.41;;;15.09;52.75
55351;BME280;62194;49.480;10.986;2023-06-14T00:12:54;97844.66;;;15.02;52.63
55351;BME280;62194;49.480;10.986;2023-06-14T00:13:00;97831.28;;;14.97;52.88
55351;BME280;62194;49.480;10.986;2023-06-14T00:13:05;97854.13;;;15.12;52.70
55351;BME280;62194;49.480;10.986;2023-06-14T00:13:12;97856.88;;;15.12;52.63
55351;BME280;62194;49.480;10.986;2023-06-14T00:13:17;97852.56;;;15.11;52.42
55351;BME280;62194;49.480;10.986;2023-06-14T00:13:23;97859.63;;;15.12;52.56
55351;BME280;62194;49.480;10.986;2023-06-14T00:13:28;97843.91;;;15.05;52.64
55351;BME280;62194;49.480;10.986;2023-06-14T00:13:33;97848.22;;;15.10;52.59
55351;BME280;62194;49.480;10.986;2023-06-14T00:13:39;97847.84;;;15.11;52.53
55351;BME280;62194;49.480;10.986;2023-06-14T00:13:44;97848.22;;;15.06;52.67
55351;BME280;62194;49.480;10.986;2023-06-14T00:13:49;97849.00;;;15.10;52.49
55351;BME280;62194;49.480;10.986;2023-06-14T00:13:55;97845.06;;;15.04;52.52
55351;BME280;62194;49.480;10.986;2023-06-14T00:14:01;97849.00;;;15.07;52.58
55351;BME280;62194;49.480;10.986;2023-06-14T00:14:08;97856.09;;;15.11;52.43
55351;BME280;62194;49.480;10.986;2023-06-14T00:14:13;97827.31;;;14.91;52.47
55351;BME280;62194;49.480;10.986;2023-06-14T00:14:18;97854.91;;;15.12;52.47
55351;BME280;62194;49.480;10.986;2023-06-14T00:14:24;97834.44;;;14.99;52.65
55351;BME280;62194;49.480;10.986;2023-06-14T00:14:29;97841.13;;;15.02;52.63
55351;BME280;62194;49.480;10.986;2023-06-14T00:14:35;97838.38;;;14.98;52.52
55351;BME280;62194;49.480;10.986;2023-06-14T00:14:40;97857.25;;;15.10;52.66
55351;BME280;62194;49.480;10.986;2023-06-14T00:14:45;97843.88;;;15.02;52.58
55351;BME280;62194;49.480;10.986;2023-06-14T00:14:51;97848.59;;;15.05;52.58
55351;BME280;62194;49.480;10.986;2023-06-14T00:14:56;97855.69;;;15.09;52.65
55351;BME280;62194;49.480;10.986;2023-06-14T00:15:02;97852.94;;;15.09;52.56
55351;BME280;62194;49.480;10.986;2023-06-14T00:15:08;97848.59;;;15.05;52.59
55351;BME280;62194;49.480;10.986;2023-06-14T00:15:15;97846.22;;;15.03;52.57
55351;BME280;62194;49.480;10.986;2023-06-14T00:15:20;97856.47;;;15.10;52.75
55351;BME280;62194;49.480;10.986;2023-06-14T00:15:26;97830.50;;;14.96;52.82
55351;BME280;62194;49.480;10.986;2023-06-14T00:15:31;97854.50;;;15.10;52.93
55351;BME280;62194;49.480;10.986;2023-06-14T00:15:36;97850.97;;;15.06;53.45
55351;BME280;62194;49.480;10.986;2023-06-14T00:15:42;97834.81;;;14.97;53.88
55351;BME280;62194;49.480;10.986;2023-06-14T00:15:47;97861.56;;;15.08;53.67
55351;BME280;62194;49.480;10.986;2023-06-14T00:15:53;97841.91;;;14.98;53.63
55351;BME280;62194;49.480;10.986;2023-06-14T00:16:00;97837.19;;;14.99;53.51
55351;BME280;62194;49.480;10.986;2023-06-14T00:16:05;97828.91;;;14.88;53.56
55351;BME280;62194;49.480;10.986;2023-06-14T00:16:10;97854.88;;;15.05;53.51
55351;BME280;62194;49.480;10.986;2023-06-14T00:16:16;97850.19;;;15.06;53.56
55351;BME280;62194;49.480;10.986;2023-06-14T00:16:21;97854.47;;;15.07;53.93
55351;BME280;62194;49.480;10.986;2023-06-14T00:16:27;97852.53;;;15.07;53.99
55351;BME280;62194;49.480;10.986;2023-06-14T00:16:33;97846.22;;;14.99;53.90
55351;BME280;62194;49.480;10.986;2023-06-14T00:16:40;97853.34;;;15.08;53.65
55351;BME280;62194;49.480;10.986;2023-06-14T00:16:47;97822.22;;;14.86;53.83
55351;BME280;62194;49.480;10.986;2023-06-14T00:16:52;97846.63;;;14.98;54.06
55351;BME280;62194;49.480;10.986;2023-06-14T00:16:58;97828.16;;;14.91;54.03
55351;BME280;62194;49.480;10.986;2023-06-14T00:17:03;97851.34;;;15.05;54.07
55351;BME280;62194;49.480;10.986;2023-06-14T00:17:09;97855.66;;;15.06;54.22
55351;BME280;62194;49.480;10.986;2023-06-14T00:17:14;97852.91;;;15.06;54.01
55351;BME280;62194;49.480;10.986;2023-06-14T00:17:21;97851.72;;;15.03;53.95
55351;BME280;62194;49.480;10.986;2023-06-14T00:17:27;97850.16;;;15.02;54.04
55351;BME280;62194;49.480;10.986;2023-06-14T00:17:36;97843.88;;;14.98;54.07
55351;BME280;62194;49.480;10.986;2023-06-14T00:17:43;97848.59;;;15.01;54.33
55351;BME280;62194;49.480;10.986;2023-06-14T00:17:52;97845.44;;;14.99;54.33
55351;BME280;62194;49.480;10.986;2023-06-14T00:17:57;97853.31;;;15.04;54.24
55351;BME280;62194;49.480;10.986;2023-06-14T00:18:05;97856.09;;;15.08;54.26
55351;BME280;62194;49.480;10.986;2023-06-14T00:18:11;97850.19;;;15.06;54.34
55351;BME280;62194;49.480;10.986;2023-06-14T00:18:16;97850.97;;;15.06;54.16
55351;BME280;62194;49.480;10.986;2023-06-14T00:18:23;97843.88;;;14.98;54.07
55351;BME280;62194;49.480;10.986;2023-06-14T00:18:34;97852.91;;;15.06;54.22
55351;BME280;62194;49.480;10.986;2023-06-14T00:18:39;97841.13;;;14.98;54.08
55351;BME280;62194;49.480;10.986;2023-06-14T00:18:45;97854.09;;;15.05;54.17
55351;BME280;62194;49.480;10.986;2023-06-14T00:18:50;97850.16;;;15.02;53.66
55351;BME280;62194;49.480;10.986;2023-06-14T00:18:56;97827.72;;;14.89;53.71
55351;BME280;62194;49.480;10.986;2023-06-14T00:19:02;97841.13;;;14.98;53.86
55351;BME280;62194;49.480;10.986;2023-06-14T00:19:10;97832.81;;;14.91;53.98
55351;BME280;62194;49.480;10.986;2023-06-14T00:19:16;97850.56;;;15.04;54.10
55351;BME280;62194;49.480;10.986;2023-06-14T00:19:21;97828.91;;;14.88;53.83
55351;BME280;62194;49.480;10.986;2023-06-14T00:19:26;97828.50;;;14.90;54.10
55351;BME280;62194;49.480;10.986;2023-06-14T00:19:31;97850.56;;;15.04;54.14
55351;BME280;62194;49.480;10.986;2023-06-14T00:19:38;97845.03;;;15.01;53.93
55351;BME280;62194;49.480;10.986;2023-06-14T00:19:43;97852.13;;;15.02;54.25
55351;BME280;62194;49.480;10.986;2023-06-14T00:19:49;97844.66;;;15.02;53.79
55351;BME280;62194;49.480;10.986;2023-06-14T00:19:54;97851.72;;;15.03;54.13
55351;BME280;62194;49.480;10.986;2023-06-14T00:20:03;97855.25;;;15.04;54.30
55351;BME280;62194;49.480;10.986;2023-06-14T00:20:12;97850.94;;;15.03;54.13
55351;BME280;62194;49.480;10.986;2023-06-14T00:20:18;97847.75;;;14.97;54.24
55351;BME280;62194;49.480;10.986;2023-06-14T00:20:23;97849.75;;;15.04;54.03
55351;BME280;62194;49.480;10.986;2023-06-14T00:20:29;97853.31;;;15.04;53.91
55351;BME280;62194;49.480;10.986;2023-06-14T00:20:35;97838.75;;;14.96;54.04
55351;BME280;62194;49.480;10.986;2023-06-14T00:20:41;97845.78;;;14.97;53.77
55351;BME280;62194;49.480;10.986;2023-06-14T00:20:47;97855.25;;;15.04;53.56
55351;BME280;62194;49.480;10.986;2023-06-14T00:20:53;97828.50;;;14.90;53.56
55351;BME280;62194;49.480;10.986;2023-06-14T00:20:58;97842.28;;;14.97;53.44
55351;BME280;62194;49.480;10.986;2023-06-14T00:21:04;97846.66;;;15.05;53.32
55351;BME280;62194;49.480;10.986;2023-06-14T00:21:09;97852.13;;;15.05;53.40
55351;BME280;62194;49.480;10.986;2023-06-14T00:21:15;97829.28;;;14.87;53.32
55351;BME280;62194;49.480;10.986;2023-06-14T00:21:20;97854.09;;;15.05;53.38
55351;BME280;62194;49.480;10.986;2023-06-14T00:21:25;97849.75;;;15.00;53.12
55351;BME280;62194;49.480;10.986;2023-06-14T00:21:33;97839.50;;;14.93;53.25
55351;BME280;62194;49.480;10.986;2023-06-14T00:21:40;97840.72;;;14.99;52.97
55351;BME280;62194;49.480;10.986;2023-06-14T00:21:45;97804.88;;;14.74;53.07
55351;BME280;62194;49.480;10.986;2023-06-14T00:21:51;97847.41;;;15.02;52.97
55351;BME280;62194;49.480;10.986;2023-06-14T00:21:57;97819.06;;;14.84;53.06
55351;BME280;62194;49.480;10.986;2023-06-14T00:22:03;97850.91;;;14.99;53.08
55351;BME280;62194;49.480;10.986;2023-06-14T00:22:08;97852.13;;;15.02;53.11
55351;BME280;62194;49.480;10.986;2023-06-14T00:22:14;97830.88;;;14.88;53.10
55351;BME280;62194;49.480;10.986;2023-06-14T00:22:19;97847.41;;;14.98;53.05
55351;BME280;62194;49.480;10.986;2023-06-14T00:22:25;97839.91;;;14.95;53.30
55351;BME280;62194;49.480;10.986;2023-06-14T00:22:30;97821.44;;;14.89;53.42
55351;BME280;62194;49.480;10.986;2023-06-14T00:22:36;97832.44;;;14.92;53.36
55351;BME280;62194;49.480;10.986;2023-06-14T00:22:42;97835.56;;;14.91;53.44
55351;BME280;62194;49.480;10.986;2023-06-14T00:22:47;97819.06;;;14.84;53.25
55351;BME280;62194;49.480;10.986;2023-06-14T00:22:53;97841.13;;;14.98;53.49
55351;BME280;62194;49.480;10.986;2023-06-14T00:23:00;97841.88;;;14.95;53.24
55351;BME280;62194;49.480;10.986;2023-06-14T00:23:06;97845.44;;;14.99;53.26
55351;BME280;62194;49.480;10.986;2023-06-14T00:23:11;97801.34;;;14.70;53.38
55351;BME280;62194;49.480;10.986;2023-06-14T00:23:17;97829.28;;;14.87;53.53
55351;BME280;62194;49.480;10.986;2023-06-14T00:23:23;97813.53;;;14.77;53.43
55351;BME280;62194;49.480;10.986;2023-06-14T00:23:28;97808.78;;;14.70;53.28
55351;BME280;62194;49.480;10.986;2023-06-14T00:23:33;97833.22;;;14.89;53.53
55351;BME280;62194;49.480;10.986;2023-06-14T00:23:38;97841.09;;;14.94;53.44
55351;BME280;62194;49.480;10.986;2023-06-14T00:23:44;97835.19;;;14.92;53.35
55351;BME280;62194;49.480;10.986;2023-06-14T00:23:49;97847.75;;;14.93;53.33
55351;BME280;62194;49.480;10.986;2023-06-14T00:23:55;97838.72;;;14.93;53.34
55351;BME280;62194;49.480;10.986;2023-06-14T00:24:01;97825.34;;;14.84;53.33
55351;BME280;62194;49.480;10.986;2023-06-14T00:24:07;97841.88;;;14.95;53.40
55351;BME280;62194;49.480;10.986;2023-06-14T00:24:12;97830.88;;;14.88;53.54
55351;BME280;62194;49.480;10.986;2023-06-14T00:24:17;97828.06;;;14.84;53.46
55351;BME280;62194;49.480;10.986;2023-06-14T00:24:23;97846.59;;;14.94;53.45
55351;BME280;62194;49.480;10.986;2023-06-14T00:24:28;97823.75;;;14.83;53.70
55351;BME280;62194;49.480;10.986;2023-06-14T00:24:33;97841.09;;;14.94;53.79
55351;BME280;62194;49.480;10.986;2023-06-14T00:24:39;97811.94;;;14.72;53.64
55351;BME280;62194;49.480;10.986;2023-06-14T00:24:44;97840.28;;;14.94;53.62
55351;BME280;62194;49.480;10.986;2023-06-14T00:24:50;97835.53;;;14.87;53.70
55351;BME280;62194;49.480;10.986;2023-06-14T00:24:55;97836.38;;;14.91;53.70
55351;BME280;62194;49.480;10.986;2023-06-14T00:25:01;97841.09;;;14.94;53.60
55351;BME280;62194;49.480;10.986;2023-06-14T00:25:06;97837.94;;;14.92;53.87
55351;BME280;62194;49.480;10.986;2023-06-14T00:25:12;97838.72;;;14.93;53.87
55351;BME280;62194;49.480;10.986;2023-06-14T00:25:17;97839.50;;;14.90;53.88
55351;BME280;62194;49.480;10.986;2023-06-14T00:25:23;97835.19;;;14.92;53.82
55351;BME280;62194;49.480;10.986;2023-06-14T00:25:31;97824.94;;;14.79;53.77
55351;BME280;62194;49.480;10.986;2023-06-14T00:25:36;97838.72;;;14.89;53.85
55351;BME280;62194;49.480;10.986;2023-06-14T00:25:41;97810.38;;;14.74;53.93
55351;BME280;62194;49.480;10.986;2023-06-14T00:25:47;97841.44;;;14.89;53.52
55351;BME280;62194;49.480;10.986;2023-06-14T00:25:52;97815.09;;;14.78;53.58
55351;BME280;62194;49.480;10.986;2023-06-14T00:25:57;97839.88;;;14.88;53.61
55351;BME280;62194;49.480;10.986;2023-06-14T00:26:03;97841.06;;;14.91;53.72
55351;BME280;62194;49.480;10.986;2023-06-14T00:26:08;97838.31;;;14.91;53.70
55351;BME280;62194;49.480;10.986;2023-06-14T00:26:14;97837.94;;;14.92;53.78
55351;BME280;62194;49.480;10.986;2023-06-14T00:26:19;97820.97;;;14.76;53.56
55351;BME280;62194;49.480;10.986;2023-06-14T00:26:25;97848.13;;;14.92;53.50
55351;BME280;62194;49.480;10.986;2023-06-14T00:26:31;97845.75;;;14.90;53.56
55351;BME280;62194;49.480;10.986;2023-06-14T00:26:36;97828.84;;;14.81;53.49
55351;BME280;62194;49.480;10.986;2023-06-14T00:26:41;97840.66;;;14.85;53.79
55351;BME280;62194;49.480;10.986;2023-06-14T00:26:47;97816.66;;;14.71;53.64
55351;BME280;62194;49.480;10.986;2023-06-14T00:26:52;97836.34;;;14.88;53.49
55351;BME280;62194;49.480;10.986;2023-06-14T00:26:57;97831.97;;;14.80;53.65
55351;BME280;62194;49.480;10.986;2023-06-14T00:27:03;97837.91;;;14.85;53.73
55351;BME280;62194;49.480;10.986;2023-06-14T00:27:08;97830.81;;;14.84;53.77
55351;BME280;62194;49.480;10.986;2023-06-14T00:27:13;97841.44;;;14.86;53.93
55351;BME280;62194;49.480;10.986;2023-06-14T00:27:18;97838.28;;;14.87;53.74
55351;BME280;62194;49.480;10.986;2023-06-14T00:27:24;97837.50;;;14.87;54.02
55351;BME280;62194;49.480;10.986;2023-06-14T00:27:30;97844.97;;;14.86;53.71
55351;BME280;62194;49.480;10.986;2023-06-14T00:27:35;97836.72;;;14.86;53.78
55351;BME280;62194;49.480;10.986;2023-06-14T00:27:40;97845.75;;;14.87;53.76
55351;BME280;62194;49.480;10.986;2023-06-14T00:27:46;97826.84;;;14.74;53.86
55351;BME280;62194;49.480;10.986;2023-06-14T00:27:52;97841.44;;;14.86;53.64
55351;BME280;62194;49.480;10.986;2023-06-14T00:27:58;97822.53;;;14.73;53.79
55351;BME280;62194;49.480;10.986;2023-06-14T00:28:03;97807.59;;;14.67;53.85
55351;BME280;62194;49.480;10.986;2023-06-14T00:28:09;97844.97;;;14.86;53.95
55351;BME280;62194;49.480;10.986;2023-06-14T00:28:14;97831.19;;;14.79;53.92
55351;BME280;62194;49.480;10.986;2023-06-14T00:28:20;97845.34;;;14.85;53.67
55351;BME280;62194;49.480;10.986;2023-06-14T00:28:25;97808.75;;;14.66;53.77
55351;BME280;62194;49.480;10.986;2023-06-14T00:28:30;97833.13;;;14.75;53.91
55351;BME280;62194;49.480;10.986;2023-06-14T00:28:36;97846.91;;;14.86;53.88
55351;BME280;62194;49.480;10.986;2023-06-14T00:28:41;97846.13;;;14.85;53.90
55351;BME280;62194;49.480;10.986;2023-06-14T00:28:46;97833.13;;;14.75;53.88
55351;BME280;62194;49.480;10.986;2023-06-14T00:28:53;97848.47;;;14.83;53.94
55351;BME280;62194;49.480;10.986;2023-06-14T00:28:58;97812.28;;;14.63;53.91
55351;BME280;62194;49.480;10.986;2023-06-14T00:29:03;97846.91;;;14.82;54.11
55351;BME280;62194;49.480;10.986;2023-06-14T00:29:09;97820.09;;;14.61;53.73
55351;BME280;62194;49.480;10.986;2023-06-14T00:29:14;97841.75;;;14.77;54.02
55351;BME280;62194;49.480;10.986;2023-06-14T00:29:19;97816.97;;;14.63;54.03
55351;BME280;62194;49.480;10.986;2023-06-14T00:29:25;97826.44;;;14.72;54.04
55351;BME280;62194;49.480;10.986;2023-06-14T00:29:30;97807.13;;;14.58;54.17
55351;BME280;62194;49.480;10.986;2023-06-14T00:29:36;97835.88;;;14.75;54.20
55351;BME280;62194;49.480;10.986;2023-06-14T00:29:41;97840.63;;;14.78;53.79
55351;BME280;62194;49.480;10.986;2023-06-14T00:29:46;97831.16;;;14.72;53.87
55351;BME280;62194;49.480;10.986;2023-06-14T00:29:52;97844.94;;;14.83;54.20
55351;BME280;62194;49.480;10.986;2023-06-14T00:29:57;97841.78;;;14.81;53.98
55351;BME280;62194;49.480;10.986;2023-06-14T00:30:03;97853.53;;;14.81;53.94
55351;BME280;62194;49.480;10.986;2023-06-14T00:30:09;97828.41;;;14.68;53.81
55351;BME280;62194;49.480;10.986;2023-06-14T00:30:15;97824.81;;;14.64;54.08
55351;BME280;62194;49.480;10.986;2023-06-14T00:30:20;97844.53;;;14.81;54.08
55351;BME280;62194;49.480;10.986;2023-06-14T00:30:26;97847.28;;;14.81;54.00
55351;BME280;62194;49.480;10.986;2023-06-14T00:30:35;97841.38;;;14.75;53.99
55351;BME280;62194;49.480;10.986;2023-06-14T00:30:40;97840.56;;;14.74;54.13
55351;BME280;62194;49.480;10.986;2023-06-14T00:30:46;97821.72;;;14.69;54.13
55351;BME280;62194;49.480;10.986;2023-06-14T00:30:51;97846.88;;;14.79;54.05
55351;BME280;62194;49.480;10.986;2023-06-14T00:30:57;97845.69;;;14.80;54.21
55351;BME280;62194;49.480;10.986;2023-06-14T00:31:02;97830.75;;;14.70;54.22